createdAt,value
2023-04-18T00:02:26.086Z,8.30
2023-04-18T00:05:35.539Z,8.39
2023-04-18T00:09:05.012Z,8.48
2023-04-18T00:12:36.215Z,8.59
2023-04-18T00:16:05.674Z,8.69
2023-04-18T00:19:35.561Z,8.76
2023-04-18T00:23:10.701Z,8.83
2023-04-18T00:26:10.194Z,8.88
2023-04-18T00:29:39.561Z,8.91
2023-04-18T00:33:11.411Z,8.92
2023-04-18T00:36:40.781Z,8.93
2023-04-18T00:40:10.197Z,8.97
2023-04-18T00:43:40.020Z,9.02
2023-04-18T00:47:07.261Z,9.11
2023-04-18T00:50:29.727Z,9.20
2023-04-18T00:53:59.495Z,9.31
2023-04-18T00:57:28.813Z,9.41
2023-04-18T01:00:58.319Z,9.47
2023-04-18T01:04:29.114Z,9.51
2023-04-18T01:07:58.857Z,9.56
2023-04-18T01:11:28.490Z,9.64
2023-04-18T01:15:04.674Z,9.72
2023-04-18T01:18:35.268Z,9.78
2023-04-18T01:22:06.882Z,9.79
2023-04-18T01:25:36.363Z,9.81
2023-04-18T01:29:05.856Z,9.79
2023-04-18T01:32:38.259Z,9.78
2023-04-18T01:36:07.857Z,9.74
2023-04-18T01:39:37.466Z,9.72
2023-04-18T01:43:08.817Z,9.69
2023-04-18T01:46:38.136Z,9.66
2023-04-18T01:49:49.514Z,9.60
2023-04-18T01:53:18.988Z,9.41
2023-04-18T01:56:48.351Z,9.09
2023-04-18T02:00:17.806Z,8.82
2023-04-18T02:03:47.980Z,8.60
2023-04-18T02:07:17.731Z,8.42
2023-04-18T02:10:47.696Z,8.28
2023-04-18T02:14:07.543Z,8.13
2023-04-18T02:17:37.298Z,8.02
2023-04-18T02:20:56.683Z,7.91
2023-04-18T02:24:26.044Z,7.75
2023-04-18T02:27:54.169Z,7.61
2023-04-18T02:31:23.580Z,7.50
2023-04-18T02:34:43.143Z,7.46
2023-04-18T02:38:02.959Z,7.43
2023-04-18T02:41:15.255Z,7.40
2023-04-18T02:44:35.155Z,7.38
2023-04-18T02:48:05.396Z,7.33
2023-04-18T02:51:25.132Z,7.32
2023-04-18T02:54:45.973Z,7.30
2023-04-18T02:58:15.480Z,7.28
2023-04-18T03:01:44.751Z,7.28
2023-04-18T03:05:16.954Z,7.25
2023-04-18T03:08:47.451Z,7.23
2023-04-18T03:11:48.033Z,7.22
2023-04-18T03:14:47.790Z,7.19
2023-04-18T03:18:07.825Z,7.15
2023-04-18T03:21:37.000Z,7.11
2023-04-18T03:24:32.829Z,7.12
2023-04-18T03:27:32.682Z,7.16
2023-04-18T03:31:02.078Z,7.17
2023-04-18T03:34:21.580Z,7.14
2023-04-18T03:37:51.122Z,7.11
2023-04-18T03:41:20.664Z,7.10
2023-04-18T03:44:50.141Z,7.11
2023-04-18T03:48:10.090Z,7.08
2023-04-18T03:51:33.224Z,7.10
2023-04-18T03:55:03.251Z,7.13
2023-04-18T03:58:32.724Z,7.11
2023-04-18T04:01:51.980Z,7.05
2023-04-18T04:05:12.353Z,6.97
2023-04-18T04:08:41.826Z,6.92
2023-04-18T04:11:51.314Z,6.89
2023-04-18T04:14:56.284Z,6.81
2023-04-18T04:17:26.754Z,6.74
2023-04-18T04:20:35.383Z,6.69
2023-04-18T04:23:15.801Z,6.66
2023-04-18T04:25:48.466Z,6.65
2023-04-18T04:28:51.605Z,6.63
2023-04-18T04:31:56.135Z,6.62
2023-04-18T04:34:35.454Z,6.59
2023-04-18T04:37:27.784Z,6.57
2023-04-18T04:40:48.190Z,6.55
2023-04-18T04:44:17.975Z,6.54
2023-04-18T04:47:32.391Z,6.54
2023-04-18T04:50:36.003Z,6.56
2023-04-18T04:53:12.779Z,6.57
2023-04-18T04:55:45.961Z,6.57
2023-04-18T04:58:24.274Z,6.57
2023-04-18T05:01:13.642Z,6.57
2023-04-18T05:03:53.486Z,6.54
2023-04-18T05:06:55.512Z,6.53
2023-04-18T05:09:24.561Z,6.51
2023-04-18T05:11:53.991Z,6.47
2023-04-18T05:14:33.204Z,6.45
2023-04-18T05:17:32.535Z,6.44
2023-04-18T05:20:45.676Z,6.41
2023-04-18T05:24:16.123Z,6.41
2023-04-18T05:26:49.336Z,6.41
2023-04-18T05:29:39.653Z,6.40
2023-04-18T05:32:29.078Z,6.38
2023-04-18T05:35:29.103Z,6.37
2023-04-18T05:38:18.391Z,6.37
2023-04-18T05:40:47.581Z,6.39
2023-04-18T05:43:24.322Z,6.42
2023-04-18T05:46:10.211Z,6.43
2023-04-18T05:48:55.592Z,6.44
2023-04-18T05:51:40.774Z,6.45
2023-04-18T05:54:44.992Z,6.44
2023-04-18T05:57:17.993Z,6.45
2023-04-18T06:00:01.787Z,6.45
2023-04-18T06:02:38.486Z,6.45
2023-04-18T06:05:18.165Z,6.43
2023-04-18T06:07:49.044Z,6.41
2023-04-18T06:10:21.859Z,6.39
2023-04-18T06:12:54.290Z,6.38
2023-04-18T06:15:36.046Z,6.37
2023-04-18T06:18:11.253Z,6.37
2023-04-18T06:20:48.253Z,6.36
2023-04-18T06:23:25.522Z,6.34
2023-04-18T06:26:44.676Z,6.31
2023-04-18T06:29:41.901Z,6.27
2023-04-18T06:32:54.325Z,6.21
2023-04-18T06:36:23.644Z,6.19
2023-04-18T06:39:24.421Z,6.17
2023-04-18T06:42:23.964Z,6.14
2023-04-18T06:45:53.568Z,6.13
2023-04-18T06:49:26.425Z,6.11
2023-04-18T06:52:36.402Z,6.08
2023-04-18T06:56:05.613Z,6.04
2023-04-18T06:59:34.994Z,6.00
2023-04-18T07:02:33.798Z,5.95
2023-04-18T07:06:03.489Z,5.93
2023-04-18T07:09:33.307Z,5.91
2023-04-18T07:12:42.934Z,5.91
2023-04-18T07:16:12.450Z,5.89
2023-04-18T07:19:42.102Z,5.88
2023-04-18T07:23:11.477Z,5.87
2023-04-18T07:26:40.822Z,5.85
2023-04-18T07:29:50.570Z,5.82
2023-04-18T07:33:20.014Z,5.79
2023-04-18T07:36:49.257Z,5.74
2023-04-18T07:40:18.553Z,5.70
2023-04-18T07:43:47.693Z,5.66
2023-04-18T07:47:07.835Z,5.64
2023-04-18T07:50:36.831Z,5.62
2023-04-18T07:54:06.283Z,5.63
2023-04-18T07:57:35.764Z,5.63
2023-04-18T08:00:38.539Z,5.65
2023-04-18T08:04:08.433Z,5.66
2023-04-18T08:07:38.979Z,5.66
2023-04-18T08:11:08.566Z,5.65
2023-04-18T08:14:30.851Z,5.64
2023-04-18T08:17:55.068Z,5.65
2023-04-18T08:21:18.363Z,5.67
2023-04-18T08:25:03.249Z,5.68
2023-04-18T08:28:34.083Z,5.71
2023-04-18T08:32:03.967Z,5.74
2023-04-18T08:35:33.160Z,5.74
2023-04-18T08:38:51.719Z,5.73
2023-04-18T08:42:30.174Z,5.76
2023-04-18T08:45:59.780Z,5.77
2023-04-18T08:49:29.137Z,5.75
2023-04-18T08:52:58.500Z,5.75
2023-04-18T08:56:27.928Z,5.74
2023-04-18T08:59:57.786Z,5.73
2023-04-18T09:03:33.797Z,5.73
2023-04-18T09:07:09.492Z,5.71
2023-04-18T09:10:54.139Z,5.69
2023-04-18T09:14:23.418Z,5.68
2023-04-18T09:17:53.745Z,5.67
2023-04-18T09:21:28.963Z,5.67
2023-04-18T09:25:04.872Z,5.65
2023-04-18T09:28:17.819Z,5.62
2023-04-18T09:31:52.744Z,5.60
2023-04-18T09:35:24.240Z,5.56
2023-04-18T09:38:56.314Z,5.53
2023-04-18T09:42:28.766Z,5.49
2023-04-18T09:46:01.399Z,5.46
2023-04-18T09:49:30.939Z,5.47
2023-04-18T09:53:04.302Z,5.48
2023-04-18T09:56:24.458Z,5.49
2023-04-18T09:59:53.779Z,5.53
2023-04-18T10:03:32.073Z,5.55
2023-04-18T10:06:52.395Z,5.56
2023-04-18T10:10:21.861Z,5.57
2023-04-18T10:13:51.136Z,5.63
2023-04-18T10:16:57.890Z,5.65
2023-04-18T10:20:28.452Z,5.68
2023-04-18T10:24:15.890Z,5.71
2023-04-18T10:27:34.342Z,5.75
2023-04-18T10:31:03.710Z,5.79
2023-04-18T10:34:28.479Z,5.82
2023-04-18T10:38:04.149Z,5.83
2023-04-18T10:41:36.614Z,5.83
2023-04-18T10:45:09.433Z,5.81
2023-04-18T10:48:38.591Z,5.81
2023-04-18T10:51:41.210Z,5.83
2023-04-18T10:54:58.482Z,5.81
2023-04-18T10:58:10.074Z,5.76
2023-04-18T11:01:32.115Z,5.71
2023-04-18T11:05:03.840Z,5.66
2023-04-18T11:08:34.683Z,5.61
2023-04-18T11:11:45.262Z,5.56
2023-04-18T11:15:24.202Z,5.54
2023-04-18T11:18:55.272Z,5.50
2023-04-18T11:22:24.739Z,5.46
2023-04-18T11:25:54.411Z,5.45
2023-04-18T11:29:24.134Z,5.44
2023-04-18T11:32:36.806Z,5.46
2023-04-18T11:35:45.591Z,5.46
2023-04-18T11:38:54.859Z,5.45
2023-04-18T11:41:49.512Z,5.46
2023-04-18T11:44:52.172Z,5.47
2023-04-18T11:48:33.347Z,5.49
2023-04-18T11:51:57.445Z,5.54
2023-04-18T11:55:36.146Z,5.55
2023-04-18T11:59:02.094Z,5.54
2023-04-18T12:02:31.404Z,5.53
2023-04-18T12:06:09.820Z,5.50
2023-04-18T12:09:11.721Z,5.48
2023-04-18T12:12:26.631Z,5.48
2023-04-18T12:15:39.572Z,5.48
2023-04-18T12:18:52.644Z,5.46
2023-04-18T12:21:30.817Z,5.44
2023-04-18T12:24:25.374Z,5.41
2023-04-18T12:27:40.755Z,5.41
2023-04-18T12:30:31.975Z,5.41
2023-04-18T12:33:35.385Z,5.41
2023-04-18T12:37:04.775Z,5.41
2023-04-18T12:40:17.251Z,5.38
2023-04-18T12:43:18.785Z,5.35
2023-04-18T12:46:31.576Z,5.35
2023-04-18T12:49:40.727Z,5.39
2023-04-18T12:52:50.570Z,5.41
2023-04-18T12:56:10.950Z,5.43
2023-04-18T12:59:20.936Z,5.45
2023-04-18T13:02:10.758Z,5.49
2023-04-18T13:04:51.242Z,5.49
2023-04-18T13:07:54.071Z,5.45
2023-04-18T13:11:27.997Z,5.46
2023-04-18T13:14:09.483Z,5.44
2023-04-18T13:16:49.412Z,5.43
2023-04-18T13:20:01.968Z,5.44
2023-04-18T13:23:13.962Z,5.44
2023-04-18T13:26:06.312Z,5.44
2023-04-18T13:28:52.267Z,5.44
2023-04-18T13:31:50.357Z,5.42
2023-04-18T13:35:11.146Z,5.39
2023-04-18T13:38:18.249Z,5.34
2023-04-18T13:41:27.035Z,5.32
2023-04-18T13:44:36.348Z,5.31
2023-04-18T13:48:05.782Z,5.28
2023-04-18T13:51:34.305Z,5.24
2023-04-18T13:54:16.077Z,5.21
2023-04-18T13:56:47.804Z,5.19
2023-04-18T13:59:21.120Z,5.17
2023-04-18T14:01:57.517Z,5.15
2023-04-18T14:04:38.574Z,5.15
2023-04-18T14:07:40.070Z,5.15
2023-04-18T14:10:12.793Z,5.16
2023-04-18T14:12:42.251Z,5.18
2023-04-18T14:15:34.808Z,5.18
2023-04-18T14:18:44.119Z,5.19
2023-04-18T14:21:32.886Z,5.18
2023-04-18T14:24:15.257Z,5.18
2023-04-18T14:26:54.003Z,5.18
2023-04-18T14:29:47.840Z,5.18
2023-04-18T14:32:28.950Z,5.16
2023-04-18T14:34:58.220Z,5.15
2023-04-18T14:37:40.793Z,5.16
2023-04-18T14:40:13.502Z,5.17
2023-04-18T14:43:23.421Z,5.15
2023-04-18T14:46:03.060Z,5.16
2023-04-18T14:48:35.248Z,5.16
2023-04-18T14:51:14.843Z,5.14
2023-04-18T14:53:47.318Z,5.15
2023-04-18T14:56:22.045Z,5.18
2023-04-18T14:58:53.018Z,5.18
2023-04-18T15:01:25.739Z,5.19
2023-04-18T15:04:21.241Z,5.21
2023-04-18T15:06:50.692Z,5.25
2023-04-18T15:10:20.025Z,5.27
2023-04-18T15:12:59.784Z,5.29
2023-04-18T15:15:47.960Z,5.31
2023-04-18T15:18:47.298Z,5.34
2023-04-18T15:22:16.542Z,5.37
2023-04-18T15:25:28.138Z,5.39
2023-04-18T15:28:38.875Z,5.45
2023-04-18T15:32:08.179Z,5.50
2023-04-18T15:35:37.837Z,5.57
2023-04-18T15:38:37.443Z,5.61
2023-04-18T15:41:48.445Z,5.65
2023-04-18T15:44:47.888Z,5.69
2023-04-18T15:48:17.159Z,5.73
2023-04-18T15:51:06.613Z,5.77
2023-04-18T15:53:49.483Z,5.81
2023-04-18T15:56:43.370Z,5.82
2023-04-18T15:59:37.944Z,5.82
2023-04-18T16:02:20.597Z,5.84
2023-04-18T16:04:53.802Z,5.86
2023-04-18T16:07:22.837Z,5.87
2023-04-18T16:10:04.093Z,5.89
2023-04-18T16:12:33.397Z,5.92
2023-04-18T16:15:02.580Z,5.95
2023-04-18T16:17:35.234Z,5.98
2023-04-18T16:20:04.860Z,6.00
2023-04-18T16:23:14.570Z,6.01
2023-04-18T16:25:43.701Z,6.02
2023-04-18T16:28:54.043Z,6.05
2023-04-18T16:31:38.645Z,6.08
2023-04-18T16:34:58.005Z,6.09
2023-04-18T16:37:56.513Z,6.11
2023-04-18T16:40:48.590Z,6.15
2023-04-18T16:43:39.593Z,6.22
2023-04-18T16:46:51.994Z,6.26
2023-04-18T16:50:11.106Z,6.29
2023-04-18T16:53:20.206Z,6.34
2023-04-18T16:56:10.531Z,6.36
2023-04-18T16:59:21.218Z,6.36
2023-04-18T17:02:44.655Z,6.37
2023-04-18T17:05:34.153Z,6.40
2023-04-18T17:08:34.327Z,6.42
2023-04-18T17:11:17.728Z,6.44
2023-04-18T17:13:51.462Z,6.47
2023-04-18T17:16:49.130Z,6.49
2023-04-18T17:20:00.073Z,6.50
2023-04-18T17:23:30.984Z,6.50
2023-04-18T17:26:42.921Z,6.49
2023-04-18T17:29:26.520Z,6.49
2023-04-18T17:32:05.249Z,6.50
2023-04-18T17:34:34.230Z,6.54
2023-04-18T17:37:04.186Z,6.59
2023-04-18T17:39:36.823Z,6.63
2023-04-18T17:42:11.753Z,6.65
2023-04-18T17:44:45.396Z,6.67
2023-04-18T17:47:19.198Z,6.69
2023-04-18T17:50:48.638Z,6.72
2023-04-18T17:53:23.631Z,6.74
2023-04-18T17:55:53.405Z,6.75
2023-04-18T17:58:24.030Z,6.77
2023-04-18T18:00:56.587Z,6.81
2023-04-18T18:03:31.575Z,6.84
2023-04-18T18:06:01.063Z,6.87
2023-04-18T18:08:33.012Z,6.92
2023-04-18T18:11:14.420Z,6.97
2023-04-18T18:13:43.692Z,7.01
2023-04-18T18:16:16.330Z,7.06
2023-04-18T18:18:45.592Z,7.11
2023-04-18T18:21:51.898Z,7.16
2023-04-18T18:24:23.122Z,7.21
2023-04-18T18:27:12.776Z,7.23
2023-04-18T18:29:45.274Z,7.24
2023-04-18T18:32:25.931Z,7.29
2023-04-18T18:35:07.432Z,7.36
2023-04-18T18:37:36.521Z,7.43
2023-04-18T18:40:06.206Z,7.50
2023-04-18T18:42:35.821Z,7.59
2023-04-18T18:45:06.892Z,7.69
2023-04-18T18:47:37.496Z,7.80
2023-04-18T18:50:08.732Z,7.92
2023-04-18T18:53:17.438Z,8.02
2023-04-18T18:56:10.529Z,8.14
2023-04-18T18:58:42.090Z,8.23
2023-04-18T19:01:21.713Z,8.31
2023-04-18T19:04:18.310Z,8.38
2023-04-18T19:06:51.113Z,8.43
2023-04-18T19:10:02.912Z,8.47
2023-04-18T19:13:12.322Z,8.47
2023-04-18T19:16:30.767Z,8.43
2023-04-18T19:19:52.825Z,8.37
2023-04-18T19:22:37.369Z,8.41
2023-04-18T19:25:30.341Z,8.43
2023-04-18T19:28:48.040Z,8.47
2023-04-18T19:31:20.001Z,8.51
2023-04-18T19:33:55.061Z,8.54
2023-04-18T19:36:24.744Z,8.59
2023-04-18T19:38:54.280Z,8.64
2023-04-18T19:41:23.755Z,8.72
2023-04-18T19:43:53.044Z,8.79
2023-04-18T19:46:22.293Z,8.86
2023-04-18T19:49:07.343Z,8.92
2023-04-18T19:51:36.915Z,8.95
2023-04-18T19:54:06.666Z,8.97
2023-04-18T19:56:58.731Z,9.01
2023-04-18T19:59:44.547Z,9.08
2023-04-18T20:02:22.674Z,9.11
2023-04-18T20:04:52.016Z,9.10
2023-04-18T20:07:22.376Z,9.09
2023-04-18T20:10:14.438Z,9.08
2023-04-18T20:13:06.968Z,9.08
2023-04-18T20:15:59.396Z,9.05
2023-04-18T20:18:28.786Z,9.01
2023-04-18T20:20:57.855Z,8.96
2023-04-18T20:23:33.178Z,8.92
2023-04-18T20:26:03.174Z,8.90
2023-04-18T20:28:53.866Z,8.89
2023-04-18T20:31:25.648Z,8.91
2023-04-18T20:34:33.362Z,8.93
2023-04-18T20:37:45.190Z,8.97
2023-04-18T20:40:47.022Z,9.00
2023-04-18T20:43:39.766Z,9.03
2023-04-18T20:46:18.239Z,9.00
2023-04-18T20:48:57.485Z,9.00
2023-04-18T20:51:48.026Z,9.03
2023-04-18T20:54:29.535Z,9.08
2023-04-18T20:57:21.877Z,9.11
2023-04-18T21:00:20.915Z,9.14
2023-04-18T21:03:13.163Z,9.16
2023-04-18T21:06:44.273Z,9.18
2023-04-18T21:09:26.965Z,9.17
2023-04-18T21:12:36.448Z,9.11
2023-04-18T21:15:45.370Z,9.07
2023-04-18T21:18:26.768Z,9.05
2023-04-18T21:20:59.010Z,9.08
2023-04-18T21:23:34.572Z,9.14
2023-04-18T21:26:03.574Z,9.18
2023-04-18T21:29:05.303Z,9.22
2023-04-18T21:31:44.521Z,9.29
2023-04-18T21:34:59.816Z,9.34
2023-04-18T21:37:49.304Z,9.36
2023-04-18T21:41:11.716Z,9.37
2023-04-18T21:44:12.871Z,9.39
2023-04-18T21:47:23.820Z,9.41
2023-04-18T21:50:36.388Z,9.37
2023-04-18T21:53:56.349Z,9.36
2023-04-18T21:56:28.965Z,9.41
2023-04-18T21:59:33.472Z,9.44
2023-04-18T22:02:06.381Z,9.47
2023-04-18T22:05:04.569Z,9.51
2023-04-18T22:08:13.594Z,9.54
2023-04-18T22:10:46.085Z,9.53
2023-04-18T22:13:21.380Z,9.53
2023-04-18T22:16:03.842Z,9.51
2023-04-18T22:19:15.272Z,9.46
2023-04-18T22:22:14.212Z,9.35
2023-04-18T22:24:44.930Z,9.30
2023-04-18T22:27:43.966Z,9.27
2023-04-18T22:30:33.392Z,9.21
2023-04-18T22:33:09.068Z,9.23
2023-04-18T22:35:38.172Z,9.28
2023-04-18T22:38:36.023Z,9.31
2023-04-18T22:41:16.748Z,9.35
2023-04-18T22:43:49.865Z,9.34
2023-04-18T22:46:46.057Z,9.33
2023-04-18T22:49:19.026Z,9.32
2023-04-18T22:52:25.012Z,9.34
2023-04-18T22:55:17.285Z,9.37
2023-04-18T22:58:47.975Z,9.40
2023-04-18T23:02:17.229Z,9.42
2023-04-18T23:05:17.732Z,9.47
2023-04-18T23:08:00.618Z,9.47
2023-04-18T23:10:41.812Z,9.50
2023-04-18T23:16:20.924Z,9.54
2023-04-18T23:19:30.127Z,9.57
2023-04-18T23:21:59.266Z,9.63
2023-04-18T23:24:28.841Z,9.72
2023-04-18T23:27:07.211Z,9.78
2023-04-18T23:29:40.658Z,9.81
2023-04-18T23:32:10.415Z,9.86
2023-04-18T23:35:09.160Z,9.88
2023-04-18T23:37:43.991Z,9.89
2023-04-18T23:41:08.134Z,9.88
2023-04-18T23:44:07.286Z,9.85
2023-04-18T23:47:10.303Z,9.83
2023-04-18T23:49:39.705Z,9.78
2023-04-18T23:52:11.912Z,9.69
2023-04-18T23:54:47.624Z,9.64
2023-04-18T23:57:19.504Z,9.60
